createdAt,value
2022-11-05T00:01:32.568Z,13.30
2022-11-05T00:04:18.788Z,13.40
2022-11-05T00:07:04.810Z,13.40
2022-11-05T00:09:33.262Z,13.40
2022-11-05T00:12:30.058Z,13.30
2022-11-05T00:15:15.548Z,13.40
2022-11-05T00:17:42.693Z,13.40
2022-11-05T00:20:13.538Z,13.60
2022-11-05T00:22:58.856Z,13.40
2022-11-05T00:25:25.631Z,13.30
2022-11-05T00:27:53.658Z,13.40
2022-11-05T00:30:25.559Z,13.40
2022-11-05T00:32:53.020Z,13.40
2022-11-05T00:35:22.370Z,13.30
2022-11-05T00:37:50.560Z,13.30
2022-11-05T00:40:17.651Z,13.40
2022-11-05T00:43:03.204Z,13.40
2022-11-05T00:45:30.876Z,13.40
2022-11-05T00:48:16.242Z,13.40
2022-11-05T00:50:42.977Z,13.40
2022-11-05T00:53:10.041Z,13.40
2022-11-05T00:55:42.390Z,13.50
2022-11-05T00:58:13.352Z,13.40
2022-11-05T01:00:48.178Z,13.40
2022-11-05T01:03:17.377Z,13.40
2022-11-05T01:05:50.354Z,13.40
2022-11-05T01:08:19.159Z,13.40
2022-11-05T01:10:52.523Z,13.40
2022-11-05T01:13:24.599Z,13.40
2022-11-05T01:15:51.430Z,13.50
2022-11-05T01:18:19.631Z,13.50
2022-11-05T01:20:46.854Z,13.40
2022-11-05T01:23:14.113Z,13.50
2022-11-05T01:25:42.137Z,13.70
2022-11-05T01:28:09.756Z,13.60
2022-11-05T01:30:38.158Z,13.60
2022-11-05T01:33:05.002Z,13.60
2022-11-05T01:35:31.704Z,13.60
2022-11-05T01:37:58.515Z,13.60
2022-11-05T01:40:25.874Z,13.50
2022-11-05T01:42:52.750Z,13.40
2022-11-05T01:45:27.635Z,13.50
2022-11-05T01:48:01.511Z,13.50
2022-11-05T01:51:03.149Z,14.70
2022-11-05T01:53:41.492Z,13.50
2022-11-05T01:56:10.046Z,13.50
2022-11-05T01:58:59.670Z,13.60
2022-11-05T02:01:27.160Z,13.50
2022-11-05T02:03:56.540Z,13.50
2022-11-05T02:06:23.324Z,13.60
2022-11-05T02:09:05.108Z,13.60
2022-11-05T02:11:31.989Z,13.50
2022-11-05T02:13:59.337Z,13.70
2022-11-05T02:17:05.417Z,13.50
2022-11-05T02:19:50.900Z,13.40
2022-11-05T02:22:41.903Z,13.50
2022-11-05T02:25:29.774Z,13.50
2022-11-05T02:28:15.382Z,13.50
2022-11-05T02:30:49.453Z,13.40
2022-11-05T02:33:23.347Z,13.40
2022-11-05T02:36:00.217Z,13.40
2022-11-05T02:38:40.313Z,13.50
2022-11-05T02:41:10.550Z,13.50
2022-11-05T02:43:55.697Z,13.50
2022-11-05T02:46:51.729Z,13.40
2022-11-05T02:49:41.836Z,13.40
2022-11-05T02:52:19.252Z,13.30
2022-11-05T02:55:10.710Z,13.30
2022-11-05T02:57:37.990Z,13.30
2022-11-05T03:00:26.935Z,13.40
2022-11-05T03:02:53.994Z,13.50
2022-11-05T03:05:34.146Z,13.50
2022-11-05T03:08:10.051Z,13.40
2022-11-05T03:10:50.361Z,13.40
2022-11-05T03:13:42.008Z,13.40
2022-11-05T03:16:53.660Z,13.40
2022-11-05T03:19:28.731Z,13.40
2022-11-05T03:22:06.534Z,13.30
2022-11-05T03:24:39.032Z,13.60
2022-11-05T03:27:17.040Z,13.50
2022-11-05T03:29:49.007Z,13.20
2022-11-05T03:32:17.513Z,13.50
2022-11-05T03:34:51.200Z,13.20
2022-11-05T03:37:22.050Z,13.30
2022-11-05T03:39:54.093Z,13.20
2022-11-05T03:42:26.027Z,13.20
2022-11-05T03:44:56.843Z,13.20
2022-11-05T03:47:27.864Z,13.90
2022-11-05T03:50:13.810Z,13.30
2022-11-05T03:52:48.117Z,13.30
2022-11-05T03:55:15.459Z,13.40
2022-11-05T03:57:47.141Z,13.40
2022-11-05T04:00:14.162Z,13.40
2022-11-05T04:02:43.033Z,13.40
2022-11-05T04:05:10.291Z,13.40
2022-11-05T04:07:55.879Z,13.40
2022-11-05T04:10:41.115Z,13.30
2022-11-05T04:13:26.402Z,13.30
2022-11-05T04:16:13.352Z,13.40
2022-11-05T04:18:40.691Z,14.10
2022-11-05T04:21:27.392Z,13.40
2022-11-05T04:24:09.954Z,13.40
2022-11-05T04:26:43.617Z,13.40
2022-11-05T04:29:29.403Z,14.00
2022-11-05T04:31:56.319Z,13.40
2022-11-05T04:34:23.613Z,13.40
2022-11-05T04:36:52.065Z,13.50
2022-11-05T04:39:20.600Z,13.70
2022-11-05T04:41:50.654Z,13.40
2022-11-05T04:44:17.549Z,13.40
2022-11-05T04:46:44.397Z,13.40
2022-11-05T04:49:11.214Z,13.40
2022-11-05T04:51:38.036Z,13.40
2022-11-05T04:54:04.813Z,13.40
2022-11-05T04:56:31.664Z,13.40
2022-11-05T04:58:58.428Z,13.40
2022-11-05T05:01:25.691Z,13.40
2022-11-05T05:03:54.039Z,13.50
2022-11-05T05:06:21.615Z,13.60
2022-11-05T05:08:50.341Z,13.50
2022-11-05T05:11:21.389Z,13.50
2022-11-05T05:13:48.935Z,13.50
2022-11-05T05:16:20.844Z,13.50
2022-11-05T05:18:48.985Z,13.40
2022-11-05T05:21:35.826Z,13.40
2022-11-05T05:24:02.619Z,13.40
2022-11-05T05:26:29.405Z,13.50
2022-11-05T05:28:56.221Z,13.40
2022-11-05T05:31:23.748Z,13.40
2022-11-05T05:33:53.947Z,13.30
2022-11-05T05:36:21.103Z,13.40
2022-11-05T05:38:48.133Z,13.40
2022-11-05T05:41:14.894Z,13.40
2022-11-05T05:43:41.682Z,13.40
2022-11-05T05:46:12.080Z,13.30
2022-11-05T05:48:39.122Z,13.30
2022-11-05T05:51:11.552Z,13.30
2022-11-05T05:53:38.802Z,13.20
2022-11-05T05:56:06.058Z,13.30
2022-11-05T05:58:35.858Z,13.20
2022-11-05T06:01:05.361Z,13.50
2022-11-05T06:03:32.379Z,13.30
2022-11-05T06:06:04.176Z,13.10
2022-11-05T06:08:31.234Z,13.40
2022-11-05T06:10:59.014Z,13.10
2022-11-05T06:13:26.785Z,13.10
2022-11-05T06:15:53.663Z,13.10
2022-11-05T06:18:20.699Z,13.10
2022-11-05T06:20:47.440Z,13.10
2022-11-05T06:23:14.282Z,13.10
2022-11-05T06:25:41.540Z,13.40
2022-11-05T06:28:08.591Z,13.00
2022-11-05T06:30:35.318Z,13.00
2022-11-05T06:33:04.177Z,13.40
2022-11-05T06:35:31.115Z,13.00
2022-11-05T06:38:03.735Z,12.80
2022-11-05T06:40:30.459Z,12.80
2022-11-05T06:42:57.630Z,12.80
2022-11-05T06:45:24.630Z,12.80
2022-11-05T06:47:58.724Z,12.80
2022-11-05T06:50:27.269Z,13.10
2022-11-05T06:52:58.850Z,12.90
2022-11-05T06:55:28.092Z,13.00
2022-11-05T06:57:55.365Z,12.90
2022-11-05T07:00:22.942Z,12.90
2022-11-05T07:02:50.041Z,12.90
2022-11-05T07:05:17.061Z,12.90
2022-11-05T07:07:45.199Z,12.90
2022-11-05T07:10:15.458Z,12.80
2022-11-05T07:12:42.907Z,12.80
2022-11-05T07:15:11.441Z,13.10
2022-11-05T07:17:39.001Z,13.00
2022-11-05T07:20:07.699Z,13.00
2022-11-05T07:22:35.309Z,13.00
2022-11-05T07:25:02.188Z,13.00
2022-11-05T07:27:29.213Z,13.10
2022-11-05T07:29:56.002Z,13.20
2022-11-05T07:32:24.006Z,13.20
2022-11-05T07:34:50.743Z,13.20
2022-11-05T07:37:17.544Z,13.20
2022-11-05T07:39:44.318Z,13.20
2022-11-05T07:42:14.143Z,13.20
2022-11-05T07:44:41.407Z,13.20
2022-11-05T07:47:08.447Z,13.30
2022-11-05T07:49:35.496Z,13.30
2022-11-05T07:52:02.347Z,13.30
2022-11-05T07:54:29.192Z,13.20
2022-11-05T07:56:56.003Z,13.30
2022-11-05T07:59:22.828Z,13.20
2022-11-05T08:01:49.608Z,13.40
2022-11-05T08:04:16.628Z,13.90
2022-11-05T08:06:43.764Z,13.30
2022-11-05T08:09:10.734Z,13.40
2022-11-05T08:11:37.512Z,13.40
2022-11-05T08:14:04.517Z,13.50
2022-11-05T08:16:31.392Z,13.40
2022-11-05T08:18:58.304Z,13.40
2022-11-05T08:21:25.027Z,13.40
2022-11-05T08:23:51.773Z,13.40
2022-11-05T08:26:19.562Z,13.40
2022-11-05T08:28:46.414Z,13.50
2022-11-05T08:31:15.378Z,13.50
2022-11-05T08:33:42.283Z,13.40
2022-11-05T08:36:09.127Z,13.40
2022-11-05T08:38:35.898Z,13.40
2022-11-05T08:41:02.715Z,13.40
2022-11-05T08:43:29.408Z,13.40
2022-11-05T08:45:56.249Z,13.70
2022-11-05T08:48:23.058Z,13.50
2022-11-05T08:50:50.465Z,13.60
2022-11-05T08:53:17.849Z,13.50
2022-11-05T08:55:47.508Z,13.60
2022-11-05T08:58:17.094Z,13.50
2022-11-05T09:00:46.780Z,14.50
2022-11-05T09:03:15.102Z,13.70
2022-11-05T09:05:43.258Z,13.60
2022-11-05T09:08:12.562Z,13.60
2022-11-05T09:10:40.975Z,13.60
2022-11-05T09:13:11.732Z,13.70
2022-11-05T09:15:42.311Z,13.60
2022-11-05T09:18:13.476Z,13.60
2022-11-05T09:20:40.768Z,13.60
2022-11-05T09:23:08.395Z,13.60
2022-11-05T09:25:35.916Z,13.60
2022-11-05T09:28:17.539Z,13.60
2022-11-05T09:30:47.577Z,13.60
2022-11-05T09:33:16.149Z,13.60
2022-11-05T09:35:49.771Z,13.60
2022-11-05T09:38:16.583Z,13.60
2022-11-05T09:41:02.596Z,13.60
2022-11-05T09:44:22.023Z,13.60
2022-11-05T09:46:53.499Z,13.60
2022-11-05T09:49:27.792Z,13.70
2022-11-05T09:51:56.877Z,13.70
2022-11-05T09:54:28.314Z,14.00
2022-11-05T09:56:56.079Z,13.80
2022-11-05T10:00:04.211Z,13.90
2022-11-05T10:02:35.445Z,13.90
2022-11-05T10:05:10.224Z,14.30
2022-11-05T10:07:53.033Z,14.00
2022-11-05T10:10:40.329Z,14.10
2022-11-05T10:13:37.146Z,14.10
2022-11-05T10:16:22.047Z,14.10
2022-11-05T10:18:54.033Z,14.30
2022-11-05T10:21:37.748Z,14.30
2022-11-05T10:24:18.155Z,14.20
2022-11-05T10:26:48.051Z,14.30
2022-11-05T10:29:23.804Z,14.30
2022-11-05T10:31:53.000Z,14.30
2022-11-05T10:34:21.422Z,14.30
2022-11-05T10:36:48.740Z,14.30
2022-11-05T10:39:17.947Z,14.30
2022-11-05T10:42:08.667Z,14.40
2022-11-05T10:44:45.176Z,14.20
2022-11-05T10:47:20.739Z,14.20
2022-11-05T10:49:59.801Z,14.20
2022-11-05T10:52:39.688Z,14.10
2022-11-05T10:55:22.203Z,14.00
2022-11-05T10:57:51.826Z,14.00
2022-11-05T11:00:21.960Z,13.90
2022-11-05T11:02:58.674Z,14.00
2022-11-05T11:05:38.314Z,13.80
2022-11-05T11:08:11.231Z,13.70
2022-11-05T11:10:48.350Z,13.70
2022-11-05T11:13:26.960Z,13.70
2022-11-05T11:15:55.695Z,13.60
2022-11-05T11:18:35.984Z,13.50
2022-11-05T11:21:19.826Z,13.50
2022-11-05T11:23:55.892Z,13.50
2022-11-05T11:26:25.644Z,13.70
2022-11-05T11:29:01.940Z,13.60
2022-11-05T11:31:33.372Z,13.50
2022-11-05T11:34:07.942Z,13.50
2022-11-05T11:36:39.758Z,13.60
2022-11-05T11:39:07.653Z,13.60
2022-11-05T11:41:41.996Z,14.20
2022-11-05T11:44:16.159Z,13.60
2022-11-05T11:46:48.775Z,13.70
2022-11-05T11:49:42.042Z,14.10
2022-11-05T11:52:15.291Z,13.70
2022-11-05T11:54:42.151Z,13.70
2022-11-05T11:57:29.826Z,13.70
2022-11-05T12:00:14.632Z,13.80
2022-11-05T12:02:55.963Z,13.70
2022-11-05T12:05:36.702Z,13.70
2022-11-05T12:08:32.719Z,13.70
2022-11-05T12:11:18.426Z,13.80
2022-11-05T12:13:51.111Z,13.70
2022-11-05T12:16:42.144Z,13.70
2022-11-05T12:19:34.296Z,13.70
2022-11-05T12:22:08.186Z,13.70
2022-11-05T12:24:53.452Z,13.80
2022-11-05T12:27:51.362Z,13.70
2022-11-05T12:30:20.834Z,13.70
2022-11-05T12:33:03.389Z,13.70
2022-11-05T12:35:57.956Z,13.70
2022-11-05T12:38:59.753Z,13.60
2022-11-05T12:42:04.457Z,13.60
2022-11-05T12:44:41.065Z,13.60
2022-11-05T12:47:26.495Z,13.80
2022-11-05T12:50:00.068Z,13.60
2022-11-05T12:52:26.764Z,13.70
2022-11-05T12:55:15.164Z,13.70
2022-11-05T12:57:45.601Z,13.80
2022-11-05T13:00:25.933Z,13.80
2022-11-05T13:03:20.607Z,13.80
2022-11-05T13:06:00.270Z,13.80
2022-11-05T13:08:48.294Z,13.80
2022-11-05T13:11:29.047Z,13.90
2022-11-05T13:14:11.553Z,13.90
2022-11-05T13:16:43.761Z,14.00
2022-11-05T13:19:24.887Z,14.00
2022-11-05T13:22:00.318Z,14.00
2022-11-05T13:24:39.165Z,14.00
2022-11-05T13:27:19.576Z,13.80
2022-11-05T13:29:53.519Z,13.80
2022-11-05T13:32:35.710Z,13.80
2022-11-05T13:35:05.853Z,13.80
2022-11-05T13:37:58.698Z,13.70
2022-11-05T13:40:50.386Z,14.40
2022-11-05T13:43:25.803Z,13.70
2022-11-05T13:46:06.510Z,13.70
2022-11-05T13:48:59.417Z,13.60
2022-11-05T13:51:42.974Z,13.60
2022-11-05T13:54:17.518Z,13.70
2022-11-05T13:57:03.777Z,13.70
2022-11-05T13:59:55.584Z,13.70
2022-11-05T14:02:31.520Z,13.80
2022-11-05T14:05:01.632Z,13.80
2022-11-05T14:07:32.064Z,13.80
2022-11-05T14:10:14.353Z,13.80
2022-11-05T14:12:45.942Z,13.80
2022-11-05T14:15:15.806Z,13.80
2022-11-05T14:18:06.503Z,13.80
2022-11-05T14:20:33.465Z,13.80
2022-11-05T14:23:25.362Z,13.80
2022-11-05T14:26:11.081Z,13.80
2022-11-05T14:28:37.862Z,13.80
2022-11-05T14:32:07.091Z,13.80
2022-11-05T14:34:53.937Z,13.90
2022-11-05T14:37:33.402Z,13.90
2022-11-05T14:40:19.027Z,13.90
2022-11-05T14:42:54.541Z,13.80
2022-11-05T14:45:30.397Z,13.80
2022-11-05T14:48:22.046Z,13.80
2022-11-05T14:50:49.793Z,13.80
2022-11-05T14:53:37.840Z,13.70
2022-11-05T14:56:09.907Z,13.70
2022-11-05T14:58:38.589Z,13.70
2022-11-05T15:01:09.283Z,13.80
2022-11-05T15:03:47.173Z,13.70
2022-11-05T15:06:20.209Z,13.80
2022-11-05T15:08:50.059Z,13.80
2022-11-05T15:11:52.187Z,13.80
2022-11-05T15:14:54.973Z,13.70
2022-11-05T15:17:40.355Z,13.70
2022-11-05T15:20:13.642Z,13.80
2022-11-05T15:22:47.309Z,13.70
2022-11-05T15:25:17.924Z,13.70
2022-11-05T15:27:59.034Z,13.70
2022-11-05T15:30:25.974Z,13.70
2022-11-05T15:32:53.154Z,13.60
2022-11-05T15:35:26.941Z,13.60
2022-11-05T15:38:01.672Z,13.60
2022-11-05T15:40:31.402Z,13.60
2022-11-05T15:43:19.460Z,13.70
2022-11-05T15:46:04.871Z,13.70
2022-11-05T15:48:32.688Z,13.60
2022-11-05T15:51:00.013Z,13.70
2022-11-05T15:54:24.406Z,13.70
2022-11-05T15:56:53.055Z,13.70
2022-11-05T15:59:22.219Z,13.60
2022-11-05T16:01:50.203Z,13.60
2022-11-05T16:04:24.744Z,13.70
2022-11-05T16:06:57.663Z,13.70
2022-11-05T16:09:34.835Z,13.70
2022-11-05T16:12:24.230Z,13.70
2022-11-05T16:15:09.801Z,13.70
2022-11-05T16:17:39.578Z,13.60
2022-11-05T16:20:28.207Z,13.70
2022-11-05T16:22:58.337Z,13.60
2022-11-05T16:25:29.807Z,13.60
2022-11-05T16:27:58.473Z,13.50
2022-11-05T16:30:26.383Z,13.50
2022-11-05T16:32:54.024Z,13.50
2022-11-05T16:35:23.802Z,14.50
2022-11-05T16:37:52.420Z,13.60
2022-11-05T16:40:20.747Z,13.60
2022-11-05T16:42:48.551Z,13.50
2022-11-05T16:45:17.077Z,13.60
2022-11-05T16:47:45.081Z,13.60
2022-11-05T16:50:24.534Z,13.70
2022-11-05T16:52:52.213Z,13.70
2022-11-05T16:55:20.308Z,13.60
2022-11-05T16:57:51.430Z,13.60
2022-11-05T17:00:20.860Z,14.90
2022-11-05T17:02:48.452Z,13.70
2022-11-05T17:05:20.920Z,13.50
2022-11-05T17:07:47.902Z,13.60
2022-11-05T17:10:14.947Z,13.60
2022-11-05T17:12:42.808Z,13.60
2022-11-05T17:15:20.378Z,13.70
2022-11-05T17:17:47.401Z,13.60
2022-11-05T17:20:27.567Z,13.60
2022-11-05T17:22:55.472Z,13.50
2022-11-05T17:25:22.447Z,13.50
2022-11-05T17:27:49.569Z,13.60
2022-11-05T17:30:16.634Z,13.60
2022-11-05T17:32:43.492Z,13.50
2022-11-05T17:35:11.090Z,13.50
2022-11-05T17:37:37.807Z,13.50
2022-11-05T17:40:06.092Z,13.50
2022-11-05T17:42:33.605Z,13.50
2022-11-05T17:45:00.284Z,13.50
2022-11-05T17:47:27.831Z,13.40
2022-11-05T17:49:54.595Z,13.60
2022-11-05T17:52:21.403Z,13.40
2022-11-05T17:54:48.150Z,13.40
2022-11-05T17:57:15.014Z,13.50
2022-11-05T17:59:42.110Z,13.50
2022-11-05T18:02:12.871Z,13.50
2022-11-05T18:04:39.758Z,13.50
2022-11-05T18:07:07.418Z,13.40
2022-11-05T18:09:34.302Z,13.30
2022-11-05T18:12:01.254Z,13.30
2022-11-05T18:14:28.049Z,13.20
2022-11-05T18:16:59.964Z,13.30
2022-11-05T18:19:27.811Z,13.30
2022-11-05T18:21:55.512Z,13.30
2022-11-05T18:24:22.901Z,13.30
2022-11-05T18:26:50.138Z,13.20
2022-11-05T18:29:16.927Z,13.10
2022-11-05T18:31:44.223Z,13.20
2022-11-05T18:34:11.468Z,13.10
2022-11-05T18:36:38.262Z,13.00
2022-11-05T18:39:06.842Z,13.00
2022-11-05T18:41:33.583Z,13.00
2022-11-05T18:44:01.905Z,13.00
2022-11-05T18:46:56.411Z,12.90
2022-11-05T18:49:17.059Z,12.80
2022-11-05T18:51:43.811Z,13.10
2022-11-05T18:54:10.612Z,13.70
2022-11-05T18:56:39.447Z,12.90
2022-11-05T18:59:34.555Z,12.80
2022-11-05T19:01:53.331Z,12.80
2022-11-05T19:04:20.183Z,12.70
2022-11-05T19:06:46.969Z,12.60
2022-11-05T19:09:13.742Z,12.70
2022-11-05T19:11:41.228Z,12.60
2022-11-05T19:14:08.181Z,12.60
2022-11-05T19:16:35.325Z,12.70
2022-11-05T19:19:04.067Z,12.70
2022-11-05T19:21:31.606Z,12.70
2022-11-05T19:24:01.355Z,12.60
2022-11-05T19:26:29.365Z,13.40
2022-11-05T19:28:59.000Z,12.60
2022-11-05T19:31:26.682Z,13.20
2022-11-05T19:33:54.664Z,13.20
2022-11-05T19:36:23.152Z,12.30
2022-11-05T19:38:57.984Z,12.40
2022-11-05T19:41:25.916Z,12.40
2022-11-05T19:43:58.101Z,12.30
2022-11-05T19:46:25.396Z,12.30
2022-11-05T19:48:52.645Z,12.30
2022-11-05T19:51:27.733Z,12.30
2022-11-05T19:53:55.394Z,12.30
2022-11-05T19:56:29.945Z,12.20
2022-11-05T19:58:56.861Z,12.20
2022-11-05T20:01:25.824Z,12.10
2022-11-05T20:03:54.960Z,12.20
2022-11-05T20:06:28.686Z,12.00
2022-11-05T20:09:20.576Z,12.00
2022-11-05T20:11:48.429Z,12.00
2022-11-05T20:14:15.866Z,12.00
2022-11-05T20:16:42.841Z,12.10
2022-11-05T20:19:12.921Z,12.00
2022-11-05T20:21:40.169Z,11.90
2022-11-05T20:24:07.202Z,11.90
2022-11-05T20:26:34.410Z,11.90
2022-11-05T20:29:01.250Z,11.80
2022-11-05T20:31:28.200Z,11.80
2022-11-05T20:33:54.992Z,11.90
2022-11-05T20:36:23.638Z,11.80
2022-11-05T20:38:55.820Z,11.80
2022-11-05T20:41:23.699Z,11.80
2022-11-05T20:43:51.235Z,11.80
2022-11-05T20:46:19.372Z,11.70
2022-11-05T20:48:46.855Z,11.60
2022-11-05T20:51:19.462Z,11.60
2022-11-05T20:53:47.284Z,11.60
2022-11-05T20:56:22.822Z,11.70
2022-11-05T20:58:50.356Z,11.80
2022-11-05T21:01:18.539Z,11.60
2022-11-05T21:03:53.000Z,11.50
2022-11-05T21:06:19.953Z,11.60
2022-11-05T21:08:48.611Z,11.60
2022-11-05T21:11:15.876Z,11.60
2022-11-05T21:13:42.683Z,11.60
2022-11-05T21:16:15.379Z,11.60
2022-11-05T21:18:44.518Z,11.60
2022-11-05T21:21:14.959Z,11.60
2022-11-05T21:23:42.346Z,11.60
2022-11-05T21:26:12.196Z,11.60
2022-11-05T21:28:40.490Z,11.60
2022-11-05T21:31:08.204Z,11.50
2022-11-05T21:33:35.465Z,11.40
2022-11-05T21:36:10.518Z,11.40
2022-11-05T21:38:37.658Z,11.40
2022-11-05T21:41:05.446Z,11.40
2022-11-05T21:43:32.518Z,11.30
2022-11-05T21:46:04.231Z,11.30
2022-11-05T21:48:31.839Z,11.30
2022-11-05T21:51:17.353Z,11.30
2022-11-05T21:54:02.843Z,11.40
2022-11-05T21:56:48.245Z,11.40
2022-11-05T21:59:43.748Z,11.40
2022-11-05T22:02:12.527Z,11.50
2022-11-05T22:04:41.813Z,11.40
2022-11-05T22:07:10.493Z,11.40
2022-11-05T22:09:37.776Z,11.50
2022-11-05T22:12:05.416Z,11.40
2022-11-05T22:14:32.777Z,11.40
2022-11-05T22:16:59.762Z,11.50
2022-11-05T22:19:26.818Z,11.60
2022-11-05T22:21:53.832Z,11.50
2022-11-05T22:24:21.303Z,12.50
2022-11-05T22:26:49.060Z,11.50
2022-11-05T22:29:16.738Z,11.50
2022-11-05T22:31:43.578Z,11.40
2022-11-05T22:34:11.640Z,11.40
2022-11-05T22:36:38.798Z,11.40
2022-11-05T22:39:06.410Z,11.40
2022-11-05T22:41:33.808Z,11.50
2022-11-05T22:44:00.694Z,11.40
2022-11-05T22:46:27.562Z,11.50
2022-11-05T22:48:54.502Z,11.40
2022-11-05T22:51:23.726Z,11.30
2022-11-05T22:53:51.157Z,11.30
2022-11-05T22:56:20.494Z,11.40
2022-11-05T22:58:47.937Z,11.30
2022-11-05T23:01:15.788Z,11.30
2022-11-05T23:03:45.174Z,11.30
2022-11-05T23:06:39.238Z,11.30
2022-11-05T23:09:30.710Z,11.20
2022-11-05T23:11:57.541Z,11.20
2022-11-05T23:14:24.433Z,11.10
2022-11-05T23:17:09.846Z,11.00
2022-11-05T23:19:55.333Z,11.10
2022-11-05T23:22:44.516Z,11.40
2022-11-05T23:25:14.707Z,10.90
2022-11-05T23:27:41.879Z,11.00
2022-11-05T23:30:12.328Z,11.10
2022-11-05T23:32:39.474Z,10.80
2022-11-05T23:35:06.698Z,10.80
2022-11-05T23:37:52.516Z,10.70
2022-11-05T23:40:31.141Z,10.70
2022-11-05T23:43:16.529Z,10.60
2022-11-05T23:45:59.255Z,10.60
2022-11-05T23:48:31.787Z,10.60
2022-11-05T23:51:07.204Z,10.60
2022-11-05T23:53:36.333Z,10.60
2022-11-05T23:56:09.533Z,10.60
2022-11-05T23:58:37.897Z,10.70
